Time;durP1;ratioP1;P1;durP2;ratioP2;P2;SDS_P1;SDS_P2;PMS_P1;PMS_P2;Temp;Humidity;BMP_temperature;BMP_pressure;BME280_temperature;BME280_humidity;BME280_pressure;Samples;Min_cycle;Max_cycle;Signal;HPM_P1;HPM_P2
2024/02/03 00:01:54;;;;;;;8.60;5.32;;;;;;;;;;5009991;28;20141;-51
2024/02/03 00:04:20;;;;;;;10.20;5.57;;;;;;;;;;4995131;28;20030;-52
2024/02/03 00:06:45;;;;;;;13.02;6.82;;;;;;;;;;4994560;28;20445;-52
2024/02/03 00:09:10;;;;;;;14.18;7.05;;;;;;;;;;4994777;28;20035;-51
2024/02/03 00:11:36;;;;;;;13.88;6.45;;;;;;;;;;4994389;28;20030;-52
2024/02/03 00:14:02;;;;;;;10.00;6.63;;;;;;;;;;4977003;28;20014;-51
2024/02/03 00:16:27;;;;;;;8.57;4.82;;;;;;;;;;4994691;28;20026;-52
2024/02/03 00:18:53;;;;;;;13.75;7.72;;;;;;;;;;4994661;28;20377;-57
2024/02/03 00:21:19;;;;;;;12.77;7.55;;;;;;;;;;4994620;28;20176;-52
2024/02/03 00:23:45;;;;;;;12.35;6.93;;;;;;;;;;4994586;28;20030;-52
2024/02/03 00:26:11;;;;;;;13.13;7.30;;;;;;;;;;4994581;28;20035;-52
2024/02/03 00:28:36;;;;;;;14.05;7.35;;;;;;;;;;4976953;28;20062;-52
2024/02/03 00:31:02;;;;;;;12.50;6.30;;;;;;;;;;5009376;28;20105;-52
2024/02/03 00:33:27;;;;;;;14.23;6.80;;;;;;;;;;4994502;28;20481;-52
2024/02/03 00:35:52;;;;;;;11.90;7.60;;;;;;;;;;4994502;28;20106;-52
2024/02/03 00:38:18;;;;;;;11.82;6.60;;;;;;;;;;4994440;28;20049;-52
2024/02/03 00:40:43;;;;;;;13.68;7.25;;;;;;;;;;4994419;28;20026;-52
2024/02/03 00:43:09;;;;;;;11.20;6.78;;;;;;;;;;4994419;28;20010;-52
2024/02/03 00:45:34;;;;;;;12.70;7.20;;;;;;;;;;4994148;28;20118;-61
2024/02/03 00:47:59;;;;;;;12.75;6.28;;;;;;;;;;4994351;28;20023;-61
2024/02/03 00:50:25;;;;;;;12.75;7.55;;;;;;;;;;4994100;28;20089;-61
2024/02/03 00:52:50;;;;;;;11.05;6.50;;;;;;;;;;4993976;28;20035;-61
2024/02/03 00:55:16;;;;;;;9.57;5.75;;;;;;;;;;4994041;28;20405;-61
2024/02/03 00:57:41;;;;;;;12.07;7.38;;;;;;;;;;4994320;28;20054;-61
2024/02/03 01:00:09;;;;;;;11.65;6.88;;;;;;;;;;4993995;28;20117;-61
2024/02/03 01:02:35;;;;;;;9.07;4.88;;;;;;;;;;4994546;28;20035;-63
2024/02/03 01:05:00;;;;;;;12.60;7.03;;;;;;;;;;4994529;28;20030;-64
2024/02/03 01:07:25;;;;;;;8.77;5.85;;;;;;;;;;4994207;28;20034;-63
2024/02/03 01:09:51;;;;;;;12.25;6.78;;;;;;;;;;4993946;28;20077;-64
2024/02/03 01:12:16;;;;;;;12.93;6.78;;;;;;;;;;4994392;28;20038;-64
2024/02/03 01:14:42;;;;;;;9.48;6.72;;;;;;;;;;4997244;28;20101;-63
2024/02/03 01:17:07;;;;;;;13.80;6.72;;;;;;;;;;5013073;28;20056;-63
2024/02/03 01:19:33;;;;;;;11.43;7.03;;;;;;;;;;4997922;28;20054;-64
2024/02/03 01:21:58;;;;;;;11.95;6.75;;;;;;;;;;4997869;28;20428;-64
2024/02/03 01:24:24;;;;;;;14.02;7.88;;;;;;;;;;4997572;28;20385;-63
2024/02/03 01:26:49;;;;;;;10.98;6.43;;;;;;;;;;4998050;28;20041;-64
2024/02/03 01:29:16;;;;;;;11.82;7.20;;;;;;;;;;4997445;28;20069;-61
2024/02/03 01:31:41;;;;;;;9.57;6.90;;;;;;;;;;4997319;28;20030;-61
2024/02/03 01:34:07;;;;;;;10.00;6.00;;;;;;;;;;4997885;28;20030;-61
2024/02/03 01:36:32;;;;;;;10.52;5.70;;;;;;;;;;4997348;28;20022;-61
2024/02/03 01:38:57;;;;;;;13.65;8.00;;;;;;;;;;4997244;28;20121;-61
2024/02/03 01:41:23;;;;;;;12.90;6.85;;;;;;;;;;4997812;28;20042;-61
2024/02/03 01:43:49;;;;;;;8.52;4.30;;;;;;;;;;4997447;28;20035;-61
2024/02/03 01:46:15;;;;;;;11.93;6.68;;;;;;;;;;4997130;28;20038;-61
2024/02/03 01:48:41;;;;;;;11.57;6.93;;;;;;;;;;4997330;28;20073;-61
2024/02/03 01:51:08;;;;;;;13.93;7.10;;;;;;;;;;4996805;28;20046;-61
2024/02/03 01:53:34;;;;;;;11.52;5.65;;;;;;;;;;4997001;28;20022;-61
2024/02/03 01:55:59;;;;;;;13.00;7.00;;;;;;;;;;4997478;28;20010;-62
2024/02/03 01:58:25;;;;;;;12.50;6.90;;;;;;;;;;4997709;28;20030;-61
2024/02/03 02:00:50;;;;;;;12.43;6.57;;;;;;;;;;4996885;28;20038;-61
2024/02/03 02:03:16;;;;;;;14.55;7.28;;;;;;;;;;4997118;28;20101;-61
2024/02/03 02:05:42;;;;;;;15.07;7.60;;;;;;;;;;4997050;28;20065;-61
2024/02/03 02:08:07;;;;;;;11.70;7.05;;;;;;;;;;4996724;28;20034;-61
2024/02/03 02:10:33;;;;;;;9.07;5.97;;;;;;;;;;4997225;28;20030;-61
2024/02/03 02:12:58;;;;;;;10.82;7.50;;;;;;;;;;4996530;28;20026;-61
2024/02/03 02:15:24;;;;;;;10.15;7.15;;;;;;;;;;4996908;28;20053;-60
2024/02/03 02:17:55;;;;;;;11.73;6.38;;;;;;;;;;4996571;28;20030;-61
2024/02/03 02:20:21;;;;;;;11.55;7.15;;;;;;;;;;4997068;28;20023;-61
2024/02/03 02:22:46;;;;;;;11.95;6.68;;;;;;;;;;5011859;28;20109;-61
2024/02/03 02:25:12;;;;;;;7.07;3.58;;;;;;;;;;4996631;28;20121;-61
2024/02/03 02:27:38;;;;;;;11.43;7.07;;;;;;;;;;4996375;28;20037;-61
2024/02/03 02:30:05;;;;;;;7.65;5.38;;;;;;;;;;4996621;28;20422;-61
2024/02/03 02:32:30;;;;;;;12.40;6.25;;;;;;;;;;4994993;28;20023;-61
2024/02/03 02:34:55;;;;;;;11.13;6.25;;;;;;;;;;4996761;28;20105;-61
2024/02/03 02:37:21;;;;;;;11.20;6.72;;;;;;;;;;4996495;28;20022;-61
2024/02/03 02:39:46;;;;;;;8.50;5.72;;;;;;;;;;4996443;28;20458;-61
2024/02/03 02:42:11;;;;;;;7.05;5.40;;;;;;;;;;4996428;28;20494;-61
2024/02/03 02:44:37;;;;;;;5.90;4.43;;;;;;;;;;4996308;28;20030;-60
2024/02/03 02:47:02;;;;;;;5.13;4.15;;;;;;;;;;4996022;28;20185;-61
2024/02/03 02:49:28;;;;;;;11.15;6.07;;;;;;;;;;4996238;28;20031;-61
2024/02/03 02:51:53;;;;;;;8.68;5.57;;;;;;;;;;4995741;28;20038;-60
2024/02/03 02:54:19;;;;;;;10.18;5.75;;;;;;;;;;4996157;28;20114;-61
2024/02/03 02:56:44;;;;;;;12.45;6.70;;;;;;;;;;4995815;28;20026;-61
2024/02/03 02:59:09;;;;;;;8.52;5.05;;;;;;;;;;4996056;28;20367;-61
2024/02/03 03:01:35;;;;;;;10.13;5.63;;;;;;;;;;4995732;28;20030;-60
2024/02/03 03:04:00;;;;;;;7.30;5.75;;;;;;;;;;5011065;28;20089;-61
2024/02/03 03:06:26;;;;;;;8.27;5.80;;;;;;;;;;4995891;28;20022;-61
2024/02/03 03:08:51;;;;;;;8.88;5.95;;;;;;;;;;4995574;28;20035;-61
2024/02/03 03:11:17;;;;;;;7.75;5.90;;;;;;;;;;5010671;28;20112;-61
2024/02/03 03:13:42;;;;;;;8.60;5.40;;;;;;;;;;4995806;28;20041;-61
2024/02/03 03:16:08;;;;;;;9.75;5.25;;;;;;;;;;4995739;28;20462;-61
2024/02/03 03:18:34;;;;;;;7.05;5.45;;;;;;;;;;4995684;28;20080;-61
2024/02/03 03:20:59;;;;;;;4.35;3.03;;;;;;;;;;4995669;28;20019;-61
2024/02/03 03:23:25;;;;;;;3.83;2.90;;;;;;;;;;4995856;28;20030;-61
2024/02/03 03:25:50;;;;;;;5.70;3.33;;;;;;;;;;4995322;28;20438;-61
2024/02/03 03:28:15;;;;;;;8.00;5.35;;;;;;;;;;4995542;28;20482;-61
2024/02/03 03:30:41;;;;;;;10.13;6.13;;;;;;;;;;4995710;28;20035;-61
2024/02/03 03:33:07;;;;;;;6.20;4.70;;;;;;;;;;4995342;28;20030;-61
2024/02/03 03:35:33;;;;;;;6.72;5.13;;;;;;;;;;4995051;28;20413;-60
2024/02/03 03:37:58;;;;;;;6.13;4.32;;;;;;;;;;4994676;28;20029;-61
2024/02/03 03:40:23;;;;;;;7.05;5.35;;;;;;;;;;4995012;28;20390;-61
2024/02/03 03:42:49;;;;;;;7.47;5.95;;;;;;;;;;4995531;28;20042;-60
2024/02/03 03:45:16;;;;;;;8.45;5.72;;;;;;;;;;4994798;28;20038;-60
2024/02/03 03:47:42;;;;;;;7.65;5.82;;;;;;;;;;4994853;28;20034;-61
2024/02/03 03:50:07;;;;;;;6.50;4.68;;;;;;;;;;4994730;28;20031;-61
2024/02/03 03:52:33;;;;;;;8.52;5.18;;;;;;;;;;4994772;28;20511;-51
2024/02/03 03:55:00;;;;;;;7.30;4.82;;;;;;;;;;4994724;28;20482;-52
2024/02/03 03:57:25;;;;;;;9.10;5.65;;;;;;;;;;4994704;28;20038;-52
2024/02/03 03:59:51;;;;;;;6.22;4.97;;;;;;;;;;4994949;28;20025;-52
2024/02/03 04:02:16;;;;;;;7.47;5.55;;;;;;;;;;4994635;28;20117;-52
2024/02/03 04:04:42;;;;;;;7.97;5.70;;;;;;;;;;4977265;28;20486;-52
2024/02/03 04:07:07;;;;;;;8.27;5.63;;;;;;;;;;4994566;28;20034;-52
2024/02/03 04:09:33;;;;;;;8.50;5.80;;;;;;;;;;4994553;28;20382;-52
2024/02/03 04:11:58;;;;;;;7.28;4.95;;;;;;;;;;4994398;28;20088;-52
2024/02/03 04:14:24;;;;;;;7.25;4.93;;;;;;;;;;4994451;28;20037;-52
2024/02/03 04:16:49;;;;;;;5.57;4.53;;;;;;;;;;4994417;28;20023;-52
2024/02/03 04:19:14;;;;;;;6.72;5.60;;;;;;;;;;4994402;28;20445;-52
2024/02/03 04:21:40;;;;;;;6.72;5.35;;;;;;;;;;4994928;28;20030;-52
2024/02/03 04:24:05;;;;;;;9.25;5.95;;;;;;;;;;4994321;28;20471;-52
2024/02/03 04:26:31;;;;;;;7.15;4.85;;;;;;;;;;4994624;28;20061;-52
2024/02/03 04:28:56;;;;;;;5.35;4.63;;;;;;;;;;4994295;28;20041;-52
2024/02/03 04:31:22;;;;;;;6.93;4.60;;;;;;;;;;4994204;28;20470;-52
2024/02/03 04:33:47;;;;;;;6.03;4.45;;;;;;;;;;4994243;28;20057;-52
2024/02/03 04:36:13;;;;;;;6.90;4.28;;;;;;;;;;4994497;28;20038;-52
2024/02/03 04:38:38;;;;;;;4.82;4.18;;;;;;;;;;4994474;28;20034;-52
2024/02/03 04:41:03;;;;;;;3.83;3.30;;;;;;;;;;4994449;28;20092;-52
2024/02/03 04:43:29;;;;;;;5.07;3.90;;;;;;;;;;4994701;28;20046;-52
2024/02/03 04:45:54;;;;;;;4.38;3.67;;;;;;;;;;4994356;28;20034;-52
2024/02/03 04:48:20;;;;;;;4.03;3.10;;;;;;;;;;5011713;28;20030;-52
2024/02/03 04:50:45;;;;;;;2.92;2.72;;;;;;;;;;4997929;28;20382;-52
2024/02/03 04:53:11;;;;;;;4.50;3.10;;;;;;;;;;4998374;28;20109;-62
2024/02/03 04:55:36;;;;;;;3.92;2.88;;;;;;;;;;4998090;28;20022;-61
2024/02/03 04:58:03;;;;;;;4.25;2.83;;;;;;;;;;4998028;28;20037;-61
2024/02/03 05:00:28;;;;;;;2.47;2.28;;;;;;;;;;4998505;28;20030;-61
2024/02/03 05:02:53;;;;;;;4.38;3.45;;;;;;;;;;4998254;28;20042;-64
2024/02/03 05:05:19;;;;;;;3.35;2.92;;;;;;;;;;4997938;28;20034;-64
2024/02/03 05:07:46;;;;;;;2.25;2.05;;;;;;;;;;4997875;28;20514;-64
2024/02/03 05:10:11;;;;;;;3.63;2.90;;;;;;;;;;4997831;28;20038;-64
2024/02/03 05:12:37;;;;;;;4.75;3.00;;;;;;;;;;4997683;28;20073;-64
2024/02/03 05:15:03;;;;;;;3.13;2.83;;;;;;;;;;4997728;28;20455;-64
2024/02/03 05:17:29;;;;;;;4.10;2.33;;;;;;;;;;4997926;28;20044;-64
2024/02/03 05:19:54;;;;;;;4.75;2.78;;;;;;;;;;4997629;28;20113;-64
2024/02/03 05:22:20;;;;;;;3.72;2.53;;;;;;;;;;4997618;28;20425;-64
2024/02/03 05:24:46;;;;;;;2.60;1.95;;;;;;;;;;4997578;28;20057;-55
2024/02/03 05:27:11;;;;;;;3.20;2.80;;;;;;;;;;4997796;28;20057;-55
2024/02/03 05:29:40;;;;;;;5.82;3.28;;;;;;;;;;5012596;28;20041;-54
2024/02/03 05:32:05;;;;;;;4.57;3.00;;;;;;;;;;4997285;28;20042;-55
2024/02/03 05:34:31;;;;;;;2.33;2.17;;;;;;;;;;4997651;28;20026;-55
2024/02/03 05:36:56;;;;;;;5.50;3.05;;;;;;;;;;4997320;28;20018;-55
2024/02/03 05:39:21;;;;;;;5.68;3.35;;;;;;;;;;4997555;28;20031;-54
2024/02/03 05:41:47;;;;;;;4.93;3.25;;;;;;;;;;4997780;28;20118;-54
2024/02/03 05:44:12;;;;;;;4.28;3.05;;;;;;;;;;4997746;28;20053;-54
2024/02/03 05:46:37;;;;;;;6.00;3.97;;;;;;;;;;4997449;28;20030;-54
2024/02/03 05:49:03;;;;;;;6.47;3.35;;;;;;;;;;4997385;28;20046;-54
2024/02/03 05:51:28;;;;;;;5.78;3.63;;;;;;;;;;4997020;28;20057;-55
2024/02/03 05:53:54;;;;;;;7.15;3.35;;;;;;;;;;4997030;28;20022;-55
2024/02/03 05:56:19;;;;;;;6.22;3.67;;;;;;;;;;4997519;28;20406;-54
2024/02/03 05:58:44;;;;;;;3.13;2.75;;;;;;;;;;4996770;28;20030;-54
2024/02/03 06:01:10;;;;;;;4.50;3.00;;;;;;;;;;4997200;28;20109;-54
2024/02/03 06:03:35;;;;;;;5.25;3.10;;;;;;;;;;4996780;28;20377;-55
2024/02/03 06:06:01;;;;;;;7.47;3.47;;;;;;;;;;4997074;28;20031;-55
2024/02/03 06:08:26;;;;;;;6.05;3.70;;;;;;;;;;4996741;28;20453;-54
2024/02/03 06:10:51;;;;;;;6.97;4.10;;;;;;;;;;4996680;28;20401;-54
2024/02/03 06:13:20;;;;;;;7.15;4.70;;;;;;;;;;4996674;28;20031;-54
2024/02/03 06:15:46;;;;;;;8.00;4.40;;;;;;;;;;4996861;28;20026;-54
2024/02/03 06:18:12;;;;;;;6.25;3.90;;;;;;;;;;5012290;28;20092;-54
2024/02/03 06:20:37;;;;;;;6.40;4.00;;;;;;;;;;4996805;28;20058;-54
2024/02/03 06:23:03;;;;;;;5.72;4.10;;;;;;;;;;4997009;28;20037;-54
2024/02/03 06:25:28;;;;;;;7.05;5.57;;;;;;;;;;4996993;28;20042;-54
2024/02/03 06:27:54;;;;;;;7.30;4.22;;;;;;;;;;5011829;28;20035;-54
2024/02/03 06:30:19;;;;;;;5.95;4.47;;;;;;;;;;4996876;28;20041;-54
2024/02/03 06:32:44;;;;;;;8.27;5.22;;;;;;;;;;4996256;28;20038;-54
2024/02/03 06:35:10;;;;;;;4.53;3.95;;;;;;;;;;4996552;28;20104;-54
2024/02/03 06:37:35;;;;;;;5.43;4.18;;;;;;;;;;4996790;28;20085;-54
2024/02/03 06:40:00;;;;;;;7.85;4.95;;;;;;;;;;4996759;28;20026;-54
2024/02/03 06:42:26;;;;;;;8.38;4.70;;;;;;;;;;4996409;28;20085;-54
2024/02/03 06:44:51;;;;;;;6.82;4.32;;;;;;;;;;5011189;28;20038;-54
2024/02/03 06:47:16;;;;;;;4.75;3.97;;;;;;;;;;4996053;28;20072;-54
2024/02/03 06:49:42;;;;;;;4.85;3.80;;;;;;;;;;4996276;28;20030;-54
2024/02/03 06:52:07;;;;;;;4.57;4.07;;;;;;;;;;4995754;28;20046;-54
2024/02/03 06:54:32;;;;;;;6.05;4.13;;;;;;;;;;4996230;28;20026;-54
2024/02/03 06:56:58;;;;;;;4.07;3.75;;;;;;;;;;4996158;28;20038;-55
2024/02/03 06:59:24;;;;;;;6.70;3.70;;;;;;;;;;4996375;28;20049;-54
2024/02/03 07:01:50;;;;;;;4.00;3.40;;;;;;;;;;4995782;28;20026;-54
2024/02/03 07:04:15;;;;;;;3.85;3.38;;;;;;;;;;4995726;28;20046;-54
2024/02/03 07:06:41;;;;;;;3.95;3.45;;;;;;;;;;4995983;28;20098;-54
2024/02/03 07:09:06;;;;;;;3.92;2.78;;;;;;;;;;4995634;28;20121;-54
2024/02/03 07:11:32;;;;;;;2.90;2.60;;;;;;;;;;4994479;28;20510;-54
2024/02/03 07:13:57;;;;;;;3.92;3.58;;;;;;;;;;4996065;28;20030;-54
2024/02/03 07:16:23;;;;;;;3.65;3.35;;;;;;;;;;4995527;28;20105;-54
2024/02/03 07:18:48;;;;;;;5.63;3.20;;;;;;;;;;4995440;28;20466;-54
2024/02/03 07:21:14;;;;;;;3.05;2.75;;;;;;;;;;4995964;28;20034;-54
2024/02/03 07:23:41;;;;;;;2.97;2.63;;;;;;;;;;4995890;28;20034;-54
2024/02/03 07:26:06;;;;;;;3.97;2.92;;;;;;;;;;4994024;28;20038;-55
2024/02/03 07:28:31;;;;;;;3.75;3.22;;;;;;;;;;4995541;28;20360;-54
2024/02/03 07:30:57;;;;;;;3.13;2.72;;;;;;;;;;4995657;28;20023;-55
2024/02/03 07:33:23;;;;;;;4.82;2.85;;;;;;;;;;4995185;28;20034;-54
2024/02/03 07:35:48;;;;;;;2.47;2.28;;;;;;;;;;4995107;28;20080;-55
2024/02/03 07:38:13;;;;;;;3.08;2.78;;;;;;;;;;4995354;28;20027;-55
2024/02/03 07:40:39;;;;;;;3.70;2.92;;;;;;;;;;4995320;28;20014;-55
2024/02/03 07:43:04;;;;;;;3.28;2.55;;;;;;;;;;4995534;28;20165;-54
2024/02/03 07:45:30;;;;;;;3.55;2.72;;;;;;;;;;4995221;28;20041;-54
2024/02/03 07:47:55;;;;;;;3.15;2.72;;;;;;;;;;4994915;28;20057;-54
2024/02/03 07:50:21;;;;;;;4.78;3.05;;;;;;;;;;4994772;28;20513;-55
2024/02/03 07:52:46;;;;;;;4.47;3.28;;;;;;;;;;4995342;28;20355;-55
2024/02/03 07:55:12;;;;;;;3.78;3.40;;;;;;;;;;5009006;23;20141;-55
2024/02/03 07:57:37;;;;;;;5.18;3.92;;;;;;;;;;5039551;23;20135;-64
2024/02/03 08:00:03;;;;;;;3.30;2.97;;;;;;;;;;5045390;23;20066;-63
2024/02/03 08:02:29;;;;;;;4.28;3.72;;;;;;;;;;5031578;23;20058;-55
2024/02/03 08:04:55;;;;;;;3.75;3.10;;;;;;;;;;5040527;23;20051;-60
2024/02/03 08:07:20;;;;;;;4.40;3.20;;;;;;;;;;5032786;23;20050;-61
2024/02/03 08:09:45;;;;;;;4.82;3.97;;;;;;;;;;5014212;28;20021;-61
2024/02/03 08:12:11;;;;;;;6.60;3.90;;;;;;;;;;5014104;28;20034;-62
2024/02/03 08:14:37;;;;;;;7.63;4.32;;;;;;;;;;5014389;28;20121;-61
2024/02/03 08:17:03;;;;;;;10.70;5.78;;;;;;;;;;5012930;28;20109;-61
2024/02/03 08:19:28;;;;;;;10.63;5.03;;;;;;;;;;5014287;28;20034;-61
2024/02/03 08:21:54;;;;;;;8.65;4.63;;;;;;;;;;5013782;28;20028;-62
2024/02/03 08:24:20;;;;;;;7.30;4.55;;;;;;;;;;5014461;28;20034;-61
2024/02/03 08:26:46;;;;;;;7.05;4.55;;;;;;;;;;5014005;28;20417;-61
2024/02/03 08:29:11;;;;;;;4.70;3.50;;;;;;;;;;5014190;28;20029;-61
2024/02/03 08:31:37;;;;;;;4.72;3.30;;;;;;;;;;5014073;28;20032;-61
2024/02/03 08:34:03;;;;;;;6.95;4.75;;;;;;;;;;5013840;28;20172;-62
2024/02/03 08:36:28;;;;;;;10.52;4.63;;;;;;;;;;5014070;28;20033;-62
2024/02/03 08:38:53;;;;;;;6.03;3.58;;;;;;;;;;5029088;28;20045;-61
2024/02/03 08:41:19;;;;;;;5.85;3.53;;;;;;;;;;5013774;28;20033;-62
2024/02/03 08:43:46;;;;;;;4.75;3.55;;;;;;;;;;5014006;28;20398;-62
2024/02/03 08:46:12;;;;;;;6.80;4.35;;;;;;;;;;5013808;28;20080;-61
2024/02/03 08:48:37;;;;;;;3.03;2.72;;;;;;;;;;5013985;28;20036;-62
2024/02/03 08:51:03;;;;;;;5.80;4.18;;;;;;;;;;5013690;28;20034;-62
2024/02/03 08:53:28;;;;;;;6.18;4.18;;;;;;;;;;5013721;28;20026;-62
2024/02/03 08:55:53;;;;;;;3.63;2.65;;;;;;;;;;5013718;28;20037;-61
2024/02/03 08:58:20;;;;;;;4.78;3.70;;;;;;;;;;5013992;28;20381;-61
2024/02/03 09:00:46;;;;;;;5.47;3.53;;;;;;;;;;5028918;28;20037;-62
2024/02/03 09:03:11;;;;;;;4.45;3.75;;;;;;;;;;5013867;28;20041;-61
2024/02/03 09:05:36;;;;;;;5.45;4.18;;;;;;;;;;5013625;28;20473;-52
2024/02/03 09:08:02;;;;;;;4.68;3.88;;;;;;;;;;5013678;28;20068;-52
2024/02/03 09:10:27;;;;;;;5.65;4.13;;;;;;;;;;5013760;28;20034;-52
2024/02/03 09:12:52;;;;;;;7.93;4.65;;;;;;;;;;5013996;28;20105;-52
2024/02/03 09:15:18;;;;;;;3.88;3.38;;;;;;;;;;5013513;28;20026;-52
2024/02/03 09:17:43;;;;;;;7.10;5.35;;;;;;;;;;5013467;28;20470;-52
2024/02/03 09:20:09;;;;;;;7.78;5.80;;;;;;;;;;5013430;28;20033;-52
2024/02/03 09:22:35;;;;;;;8.65;6.00;;;;;;;;;;5013409;28;20033;-52
2024/02/03 09:25:01;;;;;;;8.00;4.88;;;;;;;;;;5012793;28;20025;-52
2024/02/03 09:27:26;;;;;;;7.47;6.28;;;;;;;;;;5013600;28;20071;-52
2024/02/03 09:29:51;;;;;;;8.35;6.25;;;;;;;;;;5013376;28;20383;-52
2024/02/03 09:32:17;;;;;;;9.02;6.25;;;;;;;;;;5013229;28;20036;-52
2024/02/03 09:34:46;;;;;;;8.68;5.40;;;;;;;;;;5014768;28;20030;-61
2024/02/03 09:37:12;;;;;;;8.63;5.50;;;;;;;;;;5017273;28;20057;-62
2024/02/03 09:39:37;;;;;;;2.67;2.40;;;;;;;;;;5017754;28;20500;-61
2024/02/03 09:42:03;;;;;;;7.28;5.47;;;;;;;;;;5017424;28;20034;-61
2024/02/03 09:44:28;;;;;;;6.28;5.18;;;;;;;;;;5016836;28;20065;-61
2024/02/03 09:46:54;;;;;;;9.85;7.38;;;;;;;;;;5017335;28;20040;-61
2024/02/03 09:49:19;;;;;;;4.70;4.28;;;;;;;;;;5016672;28;20025;-62
2024/02/03 09:51:46;;;;;;;4.57;3.78;;;;;;;;;;5016659;28;20121;-61
2024/02/03 09:54:11;;;;;;;4.43;3.30;;;;;;;;;;5016938;28;20385;-61
2024/02/03 09:56:37;;;;;;;11.45;7.65;;;;;;;;;;5016550;28;20030;-61
2024/02/03 09:59:03;;;;;;;9.98;6.75;;;;;;;;;;5017136;28;20025;-61
2024/02/03 10:01:29;;;;;;;9.05;7.28;;;;;;;;;;5016746;28;20038;-61
2024/02/03 10:03:57;;;;;;;8.80;7.20;;;;;;;;;;5017023;28;20038;-62
2024/02/03 10:06:23;;;;;;;10.70;7.28;;;;;;;;;;5016713;28;20057;-52
2024/02/03 10:08:54;;;;;;;7.35;6.22;;;;;;;;;;5016212;28;20552;-52
2024/02/03 10:11:20;;;;;;;9.20;5.22;;;;;;;;;;5016776;28;20030;-52
2024/02/03 10:13:49;;;;;;;6.43;5.10;;;;;;;;;;5016323;28;20048;-52
2024/02/03 10:16:14;;;;;;;12.57;7.68;;;;;;;;;;5016256;28;20053;-52
2024/02/03 10:18:40;;;;;;;7.88;5.35;;;;;;;;;;5031403;28;20453;-52
2024/02/03 10:21:05;;;;;;;11.05;7.30;;;;;;;;;;5014907;28;20026;-52
2024/02/03 10:23:30;;;;;;;8.85;6.03;;;;;;;;;;5016368;28;20076;-52
2024/02/03 10:25:57;;;;;;;12.00;7.65;;;;;;;;;;5016048;28;20469;-52
2024/02/03 10:28:23;;;;;;;13.45;7.28;;;;;;;;;;5016054;28;20021;-52
2024/02/03 10:30:50;;;;;;;12.45;8.13;;;;;;;;;;5015967;28;20488;-52
2024/02/03 10:33:16;;;;;;;13.60;8.45;;;;;;;;;;5016160;28;20104;-52
2024/02/03 10:35:41;;;;;;;9.00;7.10;;;;;;;;;;5014710;28;20466;-52
2024/02/03 10:38:07;;;;;;;11.77;8.40;;;;;;;;;;5016127;28;20032;-52
2024/02/03 10:40:33;;;;;;;8.50;5.95;;;;;;;;;;5016063;28;20022;-52
2024/02/03 10:42:59;;;;;;;6.78;4.03;;;;;;;;;;5015757;28;20393;-52
2024/02/03 10:45:28;;;;;;;10.40;6.55;;;;;;;;;;5015536;28;20030;-52
2024/02/03 10:47:54;;;;;;;11.10;7.53;;;;;;;;;;5015915;28;20480;-52
2024/02/03 10:50:21;;;;;;;9.90;7.20;;;;;;;;;;5015627;28;20022;-52
2024/02/03 10:52:49;;;;;;;7.32;6.47;;;;;;;;;;5015479;28;20116;-52
2024/02/03 10:55:15;;;;;;;7.68;5.63;;;;;;;;;;5015808;28;20030;-52
2024/02/03 10:57:41;;;;;;;12.13;7.93;;;;;;;;;;5015470;28;20025;-52
2024/02/03 11:00:08;;;;;;;12.77;8.48;;;;;;;;;;5015726;28;20038;-52
2024/02/03 11:02:33;;;;;;;8.43;6.25;;;;;;;;;;5015642;28;20045;-52
2024/02/03 11:05:00;;;;;;;13.68;8.40;;;;;;;;;;5015907;28;20030;-52
2024/02/03 11:07:26;;;;;;;13.20;8.75;;;;;;;;;;5015097;28;20104;-62
2024/02/03 11:09:56;;;;;;;14.10;8.55;;;;;;;;;;5015808;28;20038;-61
2024/02/03 11:12:21;;;;;;;7.32;3.97;;;;;;;;;;5015143;28;20065;-61
2024/02/03 11:14:48;;;;;;;13.98;9.77;;;;;;;;;;5015405;28;20065;-61
2024/02/03 11:17:14;;;;;;;10.82;7.47;;;;;;;;;;5015385;28;20030;-62
2024/02/03 11:19:41;;;;;;;11.32;8.15;;;;;;;;;;5015307;28;20033;-62
2024/02/03 11:22:06;;;;;;;14.50;7.90;;;;;;;;;;5014995;28;20034;-61
2024/02/03 11:24:35;;;;;;;15.55;9.02;;;;;;;;;;5014067;28;20120;-61
2024/02/03 11:27:07;;;;;;;11.18;7.57;;;;;;;;;;5015151;28;20359;-61
2024/02/03 11:29:32;;;;;;;11.05;7.20;;;;;;;;;;5015183;28;20520;-61
2024/02/03 11:32:03;;;;;;;11.20;7.25;;;;;;;;;;5014781;28;20054;-62
2024/02/03 11:34:30;;;;;;;10.88;6.28;;;;;;;;;;5014797;28;20069;-62
2024/02/03 11:36:56;;;;;;;7.75;5.88;;;;;;;;;;5015048;28;20030;-61
2024/02/03 11:39:28;;;;;;;11.30;8.30;;;;;;;;;;5014967;28;20065;-62
2024/02/03 11:41:53;;;;;;;9.88;7.38;;;;;;;;;;5030368;28;20493;-61
2024/02/03 11:44:20;;;;;;;10.45;7.55;;;;;;;;;;5014597;28;20137;-61
2024/02/03 11:46:46;;;;;;;13.10;8.73;;;;;;;;;;5015173;28;20034;-61
2024/02/03 11:49:11;;;;;;;8.00;6.18;;;;;;;;;;5030103;28;20380;-62
2024/02/03 11:51:38;;;;;;;9.40;7.15;;;;;;;;;;5014421;28;20113;-61
2024/02/03 11:54:03;;;;;;;12.15;8.15;;;;;;;;;;5014771;28;20076;-61
2024/02/03 11:56:29;;;;;;;11.52;7.68;;;;;;;;;;5014240;28;20477;-61
2024/02/03 11:58:55;;;;;;;12.55;7.78;;;;;;;;;;5014514;28;20037;-61
2024/02/03 12:01:20;;;;;;;14.55;9.05;;;;;;;;;;5014646;28;20030;-61
2024/02/03 12:03:46;;;;;;;9.77;6.78;;;;;;;;;;5014546;28;20500;-61
2024/02/03 12:06:11;;;;;;;14.52;9.18;;;;;;;;;;5014559;28;20041;-62
2024/02/03 12:08:38;;;;;;;12.90;7.82;;;;;;;;;;5014170;28;20042;-61
2024/02/03 12:11:05;;;;;;;16.63;8.45;;;;;;;;;;5014410;28;20034;-61
2024/02/03 12:13:40;;;;;;;10.95;7.65;;;;;;;;;;5012991;28;20029;-61
2024/02/03 12:16:08;;;;;;;10.57;8.05;;;;;;;;;;5014708;28;20029;-61
2024/02/03 12:18:40;;;;;;;13.43;8.80;;;;;;;;;;5014620;28;20033;-61
2024/02/03 12:21:06;;;;;;;13.57;8.55;;;;;;;;;;5029258;28;20022;-62
2024/02/03 12:23:32;;;;;;;12.77;7.47;;;;;;;;;;5014035;28;20041;-61
2024/02/03 12:25:57;;;;;;;13.00;7.88;;;;;;;;;;5014557;28;20030;-61
2024/02/03 12:28:23;;;;;;;14.63;8.13;;;;;;;;;;5014246;28;20033;-61
2024/02/03 12:30:56;;;;;;;7.90;6.82;;;;;;;;;;5013981;28;20500;-61
2024/02/03 12:33:21;;;;;;;9.73;6.95;;;;;;;;;;5014402;28;20038;-61
2024/02/03 12:35:46;;;;;;;10.48;6.97;;;;;;;;;;5012663;28;20030;-62
2024/02/03 12:38:13;;;;;;;6.53;5.38;;;;;;;;;;5013875;28;20488;-61
2024/02/03 12:40:38;;;;;;;10.45;6.97;;;;;;;;;;5029005;28;20030;-61
2024/02/03 12:43:04;;;;;;;10.75;6.32;;;;;;;;;;5014124;28;20013;-61
2024/02/03 12:45:30;;;;;;;8.25;6.28;;;;;;;;;;5029011;28;20030;-61
2024/02/03 12:47:55;;;;;;;4.88;3.42;;;;;;;;;;5013751;28;20100;-62
2024/02/03 12:50:21;;;;;;;8.13;6.57;;;;;;;;;;5014032;28;20053;-61
2024/02/03 12:52:47;;;;;;;10.77;7.57;;;;;;;;;;5013931;28;20034;-62
2024/02/03 12:55:13;;;;;;;6.18;5.40;;;;;;;;;;5013983;28;20032;-61
2024/02/03 12:57:38;;;;;;;7.10;5.65;;;;;;;;;;5013959;28;20029;-61
2024/02/03 13:00:04;;;;;;;8.40;5.97;;;;;;;;;;5013948;28;20405;-61
2024/02/03 13:02:30;;;;;;;10.05;6.40;;;;;;;;;;5013904;28;20034;-62
2024/02/03 13:04:56;;;;;;;7.22;5.60;;;;;;;;;;5013889;28;20029;-61
2024/02/03 13:07:22;;;;;;;6.97;4.45;;;;;;;;;;5013687;28;20049;-61
2024/02/03 13:09:47;;;;;;;7.45;5.22;;;;;;;;;;5016638;28;20034;-61
2024/02/03 13:12:13;;;;;;;6.20;4.65;;;;;;;;;;5017646;28;20172;-61
2024/02/03 13:14:38;;;;;;;4.25;3.47;;;;;;;;;;5017656;28;20036;-61
2024/02/03 13:17:03;;;;;;;6.45;3.97;;;;;;;;;;5017408;28;20401;-61
2024/02/03 13:19:29;;;;;;;4.35;3.40;;;;;;;;;;5017836;28;20084;-61
2024/02/03 13:21:54;;;;;;;4.25;3.78;;;;;;;;;;5017576;28;20034;-61
2024/02/03 13:24:25;;;;;;;4.13;3.25;;;;;;;;;;5017521;28;20034;-62
2024/02/03 13:26:51;;;;;;;3.85;3.00;;;;;;;;;;5017466;28;20358;-62
2024/02/03 13:29:17;;;;;;;3.22;2.70;;;;;;;;;;5017409;28;20030;-61
2024/02/03 13:31:42;;;;;;;4.55;3.30;;;;;;;;;;5017565;28;20033;-61
2024/02/03 13:34:10;;;;;;;3.20;2.88;;;;;;;;;;5016893;28;20029;-61
2024/02/03 13:36:35;;;;;;;4.35;3.00;;;;;;;;;;5015864;28;20069;-61
2024/02/03 13:39:01;;;;;;;4.20;3.75;;;;;;;;;;5016970;28;20049;-61
2024/02/03 13:41:26;;;;;;;4.13;3.22;;;;;;;;;;5017172;28;20471;-52
2024/02/03 13:43:51;;;;;;;3.58;3.10;;;;;;;;;;5032676;28;20086;-52
2024/02/03 13:46:17;;;;;;;3.13;2.55;;;;;;;;;;5016822;28;20037;-52
2024/02/03 13:48:42;;;;;;;5.03;3.33;;;;;;;;;;5016788;28;20492;-52
2024/02/03 13:51:08;;;;;;;5.05;2.60;;;;;;;;;;5016970;28;20030;-52
2024/02/03 13:53:34;;;;;;;4.38;3.53;;;;;;;;;;5017247;28;20041;-52
2024/02/03 13:56:00;;;;;;;4.03;3.47;;;;;;;;;;5016911;28;20030;-52
2024/02/03 13:58:26;;;;;;;4.57;3.67;;;;;;;;;;5016904;28;20056;-52
2024/02/03 14:00:51;;;;;;;3.60;3.30;;;;;;;;;;5016512;28;20104;-52
2024/02/03 14:03:17;;;;;;;4.70;3.47;;;;;;;;;;5017003;28;20108;-52
2024/02/03 14:05:42;;;;;;;3.92;3.45;;;;;;;;;;5016441;28;20022;-52
2024/02/03 14:08:07;;;;;;;4.25;3.88;;;;;;;;;;5016518;28;20052;-52
2024/02/03 14:10:33;;;;;;;4.35;3.75;;;;;;;;;;5016645;28;20026;-52
2024/02/03 14:12:58;;;;;;;6.57;4.13;;;;;;;;;;5016527;28;20037;-52
2024/02/03 14:15:23;;;;;;;5.00;3.55;;;;;;;;;;5015037;28;20038;-52
2024/02/03 14:17:49;;;;;;;4.95;3.22;;;;;;;;;;5016547;28;20022;-52
2024/02/03 14:20:14;;;;;;;3.35;3.05;;;;;;;;;;5015667;28;20053;-52
2024/02/03 14:22:39;;;;;;;3.50;3.15;;;;;;;;;;5016214;28;20062;-52
2024/02/03 14:25:05;;;;;;;4.28;3.47;;;;;;;;;;5016650;28;20038;-52
2024/02/03 14:27:32;;;;;;;3.83;3.10;;;;;;;;;;5016092;28;20029;-52
2024/02/03 14:29:59;;;;;;;3.30;3.00;;;;;;;;;;5016056;28;20073;-52